sensor_id;sensor_type;location;lat;lon;timestamp;P1;durP1;ratioP1;P2;durP2;ratioP2
54025;SDS011;74404;50.662;3.398;2023-12-14T00:00:36;54.22;;;28.50;;
54025;SDS011;74404;50.662;3.398;2023-12-14T00:03:02;51.58;;;27.27;;
54025;SDS011;74404;50.662;3.398;2023-12-14T00:05:27;57.63;;;29.25;;
54025;SDS011;74404;50.662;3.398;2023-12-14T00:07:53;54.65;;;28.13;;
54025;SDS011;74404;50.662;3.398;2023-12-14T00:10:18;52.97;;;28.08;;
54025;SDS011;74404;50.662;3.398;2023-12-14T00:12:44;56.90;;;28.77;;
54025;SDS011;74404;50.662;3.398;2023-12-14T00:15:09;55.58;;;28.42;;
54025;SDS011;74404;50.662;3.398;2023-12-14T00:17:35;53.15;;;27.17;;
54025;SDS011;74404;50.662;3.398;2023-12-14T00:20:01;57.85;;;28.40;;
54025;SDS011;74404;50.662;3.398;2023-12-14T00:22:27;59.75;;;29.00;;
54025;SDS011;74404;50.662;3.398;2023-12-14T00:24:53;57.35;;;29.17;;
54025;SDS011;74404;50.662;3.398;2023-12-14T00:27:18;53.10;;;28.05;;
54025;SDS011;74404;50.662;3.398;2023-12-14T00:29:44;55.20;;;29.17;;
54025;SDS011;74404;50.662;3.398;2023-12-14T00:32:09;53.53;;;28.58;;
54025;SDS011;74404;50.662;3.398;2023-12-14T00:34:35;55.47;;;27.67;;
54025;SDS011;74404;50.662;3.398;2023-12-14T00:37:00;53.28;;;27.35;;
54025;SDS011;74404;50.662;3.398;2023-12-14T00:39:26;57.42;;;28.45;;
54025;SDS011;74404;50.662;3.398;2023-12-14T00:41:51;53.17;;;28.02;;
54025;SDS011;74404;50.662;3.398;2023-12-14T00:44:16;58.95;;;28.50;;
54025;SDS011;74404;50.662;3.398;2023-12-14T00:46:42;56.97;;;27.92;;
54025;SDS011;74404;50.662;3.398;2023-12-14T00:49:07;54.47;;;28.55;;
54025;SDS011;74404;50.662;3.398;2023-12-14T00:51:33;55.90;;;28.95;;
54025;SDS011;74404;50.662;3.398;2023-12-14T00:53:58;56.85;;;29.17;;
54025;SDS011;74404;50.662;3.398;2023-12-14T00:56:24;55.67;;;28.25;;
54025;SDS011;74404;50.662;3.398;2023-12-14T00:58:49;54.38;;;27.92;;
54025;SDS011;74404;50.662;3.398;2023-12-14T01:01:15;52.05;;;27.27;;
54025;SDS011;74404;50.662;3.398;2023-12-14T01:03:40;57.83;;;27.90;;
54025;SDS011;74404;50.662;3.398;2023-12-14T01:06:05;59.35;;;29.38;;
54025;SDS011;74404;50.662;3.398;2023-12-14T01:08:32;56.75;;;28.55;;
54025;SDS011;74404;50.662;3.398;2023-12-14T01:10:57;58.38;;;28.00;;
54025;SDS011;74404;50.662;3.398;2023-12-14T01:13:23;60.85;;;29.70;;
54025;SDS011;74404;50.662;3.398;2023-12-14T01:15:48;56.80;;;29.48;;
54025;SDS011;74404;50.662;3.398;2023-12-14T01:18:14;59.47;;;28.13;;
54025;SDS011;74404;50.662;3.398;2023-12-14T01:20:39;61.03;;;29.08;;
54025;SDS011;74404;50.662;3.398;2023-12-14T01:23:04;59.30;;;27.60;;
54025;SDS011;74404;50.662;3.398;2023-12-14T01:25:30;58.40;;;27.33;;
54025;SDS011;74404;50.662;3.398;2023-12-14T01:27:55;61.72;;;28.60;;
54025;SDS011;74404;50.662;3.398;2023-12-14T01:30:21;59.38;;;29.10;;
54025;SDS011;74404;50.662;3.398;2023-12-14T01:32:46;58.45;;;27.88;;
54025;SDS011;74404;50.662;3.398;2023-12-14T01:35:12;58.33;;;29.30;;
54025;SDS011;74404;50.662;3.398;2023-12-14T01:37:37;58.83;;;27.92;;
54025;SDS011;74404;50.662;3.398;2023-12-14T01:40:03;61.38;;;29.17;;
54025;SDS011;74404;50.662;3.398;2023-12-14T01:42:30;55.95;;;27.77;;
54025;SDS011;74404;50.662;3.398;2023-12-14T01:44:55;55.63;;;27.17;;
54025;SDS011;74404;50.662;3.398;2023-12-14T01:47:22;53.03;;;25.58;;
54025;SDS011;74404;50.662;3.398;2023-12-14T01:49:47;53.22;;;26.10;;
54025;SDS011;74404;50.662;3.398;2023-12-14T01:52:13;54.50;;;25.85;;
54025;SDS011;74404;50.662;3.398;2023-12-14T01:54:38;52.85;;;25.38;;
54025;SDS011;74404;50.662;3.398;2023-12-14T01:57:04;53.65;;;23.45;;
54025;SDS011;74404;50.662;3.398;2023-12-14T01:59:30;54.35;;;25.35;;
54025;SDS011;74404;50.662;3.398;2023-12-14T02:01:55;45.03;;;22.75;;
54025;SDS011;74404;50.662;3.398;2023-12-14T02:04:22;50.78;;;23.98;;
54025;SDS011;74404;50.662;3.398;2023-12-14T02:06:50;50.65;;;22.88;;
54025;SDS011;74404;50.662;3.398;2023-12-14T02:09:15;46.53;;;22.52;;
54025;SDS011;74404;50.662;3.398;2023-12-14T02:11:41;42.55;;;22.50;;
54025;SDS011;74404;50.662;3.398;2023-12-14T02:14:06;45.47;;;21.88;;
54025;SDS011;74404;50.662;3.398;2023-12-14T02:16:34;43.83;;;22.42;;
54025;SDS011;74404;50.662;3.398;2023-12-14T02:18:59;42.35;;;20.88;;
54025;SDS011;74404;50.662;3.398;2023-12-14T02:21:25;40.95;;;20.50;;
54025;SDS011;74404;50.662;3.398;2023-12-14T02:23:50;40.35;;;19.88;;
54025;SDS011;74404;50.662;3.398;2023-12-14T02:26:15;37.50;;;19.98;;
54025;SDS011;74404;50.662;3.398;2023-12-14T02:28:41;38.58;;;19.92;;
54025;SDS011;74404;50.662;3.398;2023-12-14T02:31:06;38.20;;;17.75;;
54025;SDS011;74404;50.662;3.398;2023-12-14T02:33:32;38.05;;;19.38;;
54025;SDS011;74404;50.662;3.398;2023-12-14T02:35:57;36.60;;;18.95;;
54025;SDS011;74404;50.662;3.398;2023-12-14T02:38:23;35.10;;;18.58;;
54025;SDS011;74404;50.662;3.398;2023-12-14T02:40:48;34.47;;;18.40;;
54025;SDS011;74404;50.662;3.398;2023-12-14T02:43:18;33.75;;;17.70;;
54025;SDS011;74404;50.662;3.398;2023-12-14T02:45:46;33.50;;;17.85;;
54025;SDS011;74404;50.662;3.398;2023-12-14T02:48:11;31.63;;;17.92;;
54025;SDS011;74404;50.662;3.398;2023-12-14T02:50:37;31.50;;;17.65;;
54025;SDS011;74404;50.662;3.398;2023-12-14T02:53:03;34.85;;;17.40;;
54025;SDS011;74404;50.662;3.398;2023-12-14T02:55:28;26.75;;;15.32;;
54025;SDS011;74404;50.662;3.398;2023-12-14T02:57:54;29.67;;;16.50;;
54025;SDS011;74404;50.662;3.398;2023-12-14T03:00:19;28.83;;;15.25;;
54025;SDS011;74404;50.662;3.398;2023-12-14T03:02:45;24.63;;;14.38;;
54025;SDS011;74404;50.662;3.398;2023-12-14T03:05:10;24.67;;;15.48;;
54025;SDS011;74404;50.662;3.398;2023-12-14T03:07:36;26.77;;;15.20;;
54025;SDS011;74404;50.662;3.398;2023-12-14T03:10:02;27.77;;;13.98;;
54025;SDS011;74404;50.662;3.398;2023-12-14T03:12:28;23.35;;;12.73;;
54025;SDS011;74404;50.662;3.398;2023-12-14T03:14:54;20.63;;;12.57;;
54025;SDS011;74404;50.662;3.398;2023-12-14T03:17:19;22.17;;;12.00;;
54025;SDS011;74404;50.662;3.398;2023-12-14T03:19:45;20.65;;;11.85;;
54025;SDS011;74404;50.662;3.398;2023-12-14T03:22:10;23.33;;;12.50;;
54025;SDS011;74404;50.662;3.398;2023-12-14T03:24:36;17.83;;;11.25;;
54025;SDS011;74404;50.662;3.398;2023-12-14T03:27:02;19.45;;;10.52;;
54025;SDS011;74404;50.662;3.398;2023-12-14T03:29:28;20.98;;;11.75;;
54025;SDS011;74404;50.662;3.398;2023-12-14T03:31:55;18.38;;;10.90;;
54025;SDS011;74404;50.662;3.398;2023-12-14T03:34:21;17.25;;;9.98;;
54025;SDS011;74404;50.662;3.398;2023-12-14T03:36:47;16.60;;;10.52;;
54025;SDS011;74404;50.662;3.398;2023-12-14T03:39:12;19.85;;;10.65;;
54025;SDS011;74404;50.662;3.398;2023-12-14T03:41:38;16.17;;;10.13;;
54025;SDS011;74404;50.662;3.398;2023-12-14T03:44:03;16.00;;;10.75;;
54025;SDS011;74404;50.662;3.398;2023-12-14T03:46:29;15.27;;;9.52;;
54025;SDS011;74404;50.662;3.398;2023-12-14T03:48:54;15.95;;;10.25;;
54025;SDS011;74404;50.662;3.398;2023-12-14T03:51:20;15.57;;;9.90;;
54025;SDS011;74404;50.662;3.398;2023-12-14T03:53:46;15.38;;;10.13;;
54025;SDS011;74404;50.662;3.398;2023-12-14T03:56:12;17.42;;;9.25;;
54025;SDS011;74404;50.662;3.398;2023-12-14T03:58:37;13.85;;;9.27;;
54025;SDS011;74404;50.662;3.398;2023-12-14T04:01:03;15.40;;;9.48;;
54025;SDS011;74404;50.662;3.398;2023-12-14T04:03:28;13.75;;;9.30;;
54025;SDS011;74404;50.662;3.398;2023-12-14T04:05:54;16.38;;;9.93;;
54025;SDS011;74404;50.662;3.398;2023-12-14T04:08:19;13.68;;;9.38;;
54025;SDS011;74404;50.662;3.398;2023-12-14T04:10:45;14.25;;;9.20;;
54025;SDS011;74404;50.662;3.398;2023-12-14T04:13:10;14.75;;;8.98;;
54025;SDS011;74404;50.662;3.398;2023-12-14T04:15:36;16.05;;;9.02;;
54025;SDS011;74404;50.662;3.398;2023-12-14T04:18:01;12.68;;;9.18;;
54025;SDS011;74404;50.662;3.398;2023-12-14T04:20:27;13.98;;;9.27;;
54025;SDS011;74404;50.662;3.398;2023-12-14T04:22:52;16.73;;;9.13;;
54025;SDS011;74404;50.662;3.398;2023-12-14T04:25:18;13.18;;;9.23;;
54025;SDS011;74404;50.662;3.398;2023-12-14T04:27:44;12.82;;;8.25;;
54025;SDS011;74404;50.662;3.398;2023-12-14T04:30:09;14.40;;;8.52;;
54025;SDS011;74404;50.662;3.398;2023-12-14T04:32:36;16.67;;;8.75;;
54025;SDS011;74404;50.662;3.398;2023-12-14T04:35:02;14.82;;;8.95;;
54025;SDS011;74404;50.662;3.398;2023-12-14T04:37:29;16.65;;;9.18;;
54025;SDS011;74404;50.662;3.398;2023-12-14T04:39:55;14.88;;;8.98;;
54025;SDS011;74404;50.662;3.398;2023-12-14T04:42:21;13.93;;;8.27;;
54025;SDS011;74404;50.662;3.398;2023-12-14T04:44:46;12.70;;;8.57;;
54025;SDS011;74404;50.662;3.398;2023-12-14T04:47:12;16.48;;;8.60;;
54025;SDS011;74404;50.662;3.398;2023-12-14T04:49:37;14.18;;;8.25;;
54025;SDS011;74404;50.662;3.398;2023-12-14T04:52:03;16.63;;;8.40;;
54025;SDS011;74404;50.662;3.398;2023-12-14T04:54:28;13.93;;;7.45;;
54025;SDS011;74404;50.662;3.398;2023-12-14T04:56:54;15.25;;;7.85;;
54025;SDS011;74404;50.662;3.398;2023-12-14T04:59:19;13.23;;;8.57;;
54025;SDS011;74404;50.662;3.398;2023-12-14T05:01:45;13.02;;;8.30;;
54025;SDS011;74404;50.662;3.398;2023-12-14T05:04:10;14.18;;;8.30;;
54025;SDS011;74404;50.662;3.398;2023-12-14T05:06:37;16.98;;;8.23;;
54025;SDS011;74404;50.662;3.398;2023-12-14T05:09:03;13.77;;;8.13;;
54025;SDS011;74404;50.662;3.398;2023-12-14T05:11:30;14.82;;;7.22;;
54025;SDS011;74404;50.662;3.398;2023-12-14T05:13:56;12.05;;;7.80;;
54025;SDS011;74404;50.662;3.398;2023-12-14T05:16:22;13.90;;;7.75;;
54025;SDS011;74404;50.662;3.398;2023-12-14T05:18:52;12.85;;;7.88;;
54025;SDS011;74404;50.662;3.398;2023-12-14T05:21:18;13.38;;;8.00;;
54025;SDS011;74404;50.662;3.398;2023-12-14T05:23:44;14.73;;;7.95;;
54025;SDS011;74404;50.662;3.398;2023-12-14T05:26:09;16.58;;;7.90;;
54025;SDS011;74404;50.662;3.398;2023-12-14T05:28:35;13.73;;;7.57;;
54025;SDS011;74404;50.662;3.398;2023-12-14T05:31:00;11.82;;;7.30;;
54025;SDS011;74404;50.662;3.398;2023-12-14T05:33:26;12.18;;;7.50;;
54025;SDS011;74404;50.662;3.398;2023-12-14T05:35:52;14.98;;;8.00;;
54025;SDS011;74404;50.662;3.398;2023-12-14T05:38:17;12.90;;;7.75;;
54025;SDS011;74404;50.662;3.398;2023-12-14T05:40:43;12.13;;;7.53;;
54025;SDS011;74404;50.662;3.398;2023-12-14T05:43:09;15.98;;;7.25;;
54025;SDS011;74404;50.662;3.398;2023-12-14T05:45:35;12.52;;;7.28;;
54025;SDS011;74404;50.662;3.398;2023-12-14T05:48:01;12.50;;;7.82;;
54025;SDS011;74404;50.662;3.398;2023-12-14T05:50:27;12.23;;;7.22;;
54025;SDS011;74404;50.662;3.398;2023-12-14T05:52:52;14.48;;;6.97;;
54025;SDS011;74404;50.662;3.398;2023-12-14T05:55:19;12.73;;;7.55;;
54025;SDS011;74404;50.662;3.398;2023-12-14T05:57:47;15.13;;;7.30;;
54025;SDS011;74404;50.662;3.398;2023-12-14T06:00:13;12.98;;;7.53;;
54025;SDS011;74404;50.662;3.398;2023-12-14T06:02:39;10.45;;;7.10;;
54025;SDS011;74404;50.662;3.398;2023-12-14T06:05:05;12.57;;;6.55;;
54025;SDS011;74404;50.662;3.398;2023-12-14T06:07:32;10.73;;;6.35;;
54025;SDS011;74404;50.662;3.398;2023-12-14T06:09:58;12.25;;;6.90;;
54025;SDS011;74404;50.662;3.398;2023-12-14T06:12:23;13.52;;;7.28;;
54025;SDS011;74404;50.662;3.398;2023-12-14T06:14:49;12.25;;;7.95;;
54025;SDS011;74404;50.662;3.398;2023-12-14T06:17:15;13.07;;;7.20;;
54025;SDS011;74404;50.662;3.398;2023-12-14T06:19:41;10.82;;;6.90;;
54025;SDS011;74404;50.662;3.398;2023-12-14T06:22:06;12.00;;;7.20;;
54025;SDS011;74404;50.662;3.398;2023-12-14T06:24:32;11.30;;;6.75;;
54025;SDS011;74404;50.662;3.398;2023-12-14T06:26:57;13.65;;;7.22;;
54025;SDS011;74404;50.662;3.398;2023-12-14T06:29:23;10.70;;;6.80;;
54025;SDS011;74404;50.662;3.398;2023-12-14T06:31:48;11.30;;;6.90;;
54025;SDS011;74404;50.662;3.398;2023-12-14T06:34:14;12.27;;;6.65;;
54025;SDS011;74404;50.662;3.398;2023-12-14T06:36:43;8.77;;;6.50;;
54025;SDS011;74404;50.662;3.398;2023-12-14T06:39:10;9.90;;;6.75;;
54025;SDS011;74404;50.662;3.398;2023-12-14T06:41:36;16.60;;;7.32;;
54025;SDS011;74404;50.662;3.398;2023-12-14T06:44:01;10.77;;;7.28;;
54025;SDS011;74404;50.662;3.398;2023-12-14T06:46:27;10.00;;;6.45;;
54025;SDS011;74404;50.662;3.398;2023-12-14T06:48:53;13.30;;;6.82;;
54025;SDS011;74404;50.662;3.398;2023-12-14T06:51:20;10.23;;;6.68;;
54025;SDS011;74404;50.662;3.398;2023-12-14T06:53:46;12.10;;;6.97;;
54025;SDS011;74404;50.662;3.398;2023-12-14T06:56:12;13.18;;;6.78;;
54025;SDS011;74404;50.662;3.398;2023-12-14T06:58:39;9.68;;;6.38;;
54025;SDS011;74404;50.662;3.398;2023-12-14T07:01:06;10.52;;;7.00;;
54025;SDS011;74404;50.662;3.398;2023-12-14T07:03:31;12.55;;;6.95;;
54025;SDS011;74404;50.662;3.398;2023-12-14T07:05:57;15.27;;;6.95;;
54025;SDS011;74404;50.662;3.398;2023-12-14T07:08:24;14.65;;;7.38;;
54025;SDS011;74404;50.662;3.398;2023-12-14T07:10:49;12.15;;;6.70;;
54025;SDS011;74404;50.662;3.398;2023-12-14T07:13:15;10.93;;;6.63;;
54025;SDS011;74404;50.662;3.398;2023-12-14T07:15:40;15.18;;;7.53;;
54025;SDS011;74404;50.662;3.398;2023-12-14T07:18:06;10.73;;;6.47;;
54025;SDS011;74404;50.662;3.398;2023-12-14T07:20:32;9.38;;;6.95;;
54025;SDS011;74404;50.662;3.398;2023-12-14T07:22:57;11.15;;;6.63;;
54025;SDS011;74404;50.662;3.398;2023-12-14T07:25:23;12.30;;;7.40;;
54025;SDS011;74404;50.662;3.398;2023-12-14T07:27:48;14.30;;;6.82;;
54025;SDS011;74404;50.662;3.398;2023-12-14T07:30:14;11.27;;;7.07;;
54025;SDS011;74404;50.662;3.398;2023-12-14T07:32:39;12.68;;;6.82;;
54025;SDS011;74404;50.662;3.398;2023-12-14T07:35:05;13.25;;;6.60;;
54025;SDS011;74404;50.662;3.398;2023-12-14T07:37:31;9.18;;;6.63;;
54025;SDS011;74404;50.662;3.398;2023-12-14T07:39:57;12.90;;;7.45;;
54025;SDS011;74404;50.662;3.398;2023-12-14T07:42:25;14.40;;;7.50;;
54025;SDS011;74404;50.662;3.398;2023-12-14T07:44:50;11.38;;;7.05;;
54025;SDS011;74404;50.662;3.398;2023-12-14T07:47:16;14.48;;;7.28;;
54025;SDS011;74404;50.662;3.398;2023-12-14T07:49:42;10.93;;;7.05;;
54025;SDS011;74404;50.662;3.398;2023-12-14T07:52:07;12.27;;;6.97;;
54025;SDS011;74404;50.662;3.398;2023-12-14T07:54:33;12.15;;;7.22;;
54025;SDS011;74404;50.662;3.398;2023-12-14T07:56:59;16.17;;;7.30;;
54025;SDS011;74404;50.662;3.398;2023-12-14T07:59:25;13.05;;;7.63;;
54025;SDS011;74404;50.662;3.398;2023-12-14T08:01:50;15.50;;;7.43;;
54025;SDS011;74404;50.662;3.398;2023-12-14T08:04:16;12.48;;;7.40;;
54025;SDS011;74404;50.662;3.398;2023-12-14T08:06:41;9.13;;;7.18;;
54025;SDS011;74404;50.662;3.398;2023-12-14T08:09:07;12.25;;;7.00;;
54025;SDS011;74404;50.662;3.398;2023-12-14T08:11:33;13.63;;;7.00;;
54025;SDS011;74404;50.662;3.398;2023-12-14T08:13:59;14.85;;;7.47;;
54025;SDS011;74404;50.662;3.398;2023-12-14T08:16:24;11.68;;;7.13;;
54025;SDS011;74404;50.662;3.398;2023-12-14T08:18:50;16.75;;;6.78;;
54025;SDS011;74404;50.662;3.398;2023-12-14T08:21:15;13.05;;;7.22;;
54025;SDS011;74404;50.662;3.398;2023-12-14T08:23:42;16.60;;;7.95;;
54025;SDS011;74404;50.662;3.398;2023-12-14T08:26:07;14.77;;;7.78;;
54025;SDS011;74404;50.662;3.398;2023-12-14T08:28:35;12.68;;;7.10;;
54025;SDS011;74404;50.662;3.398;2023-12-14T08:31:01;12.18;;;7.15;;
54025;SDS011;74404;50.662;3.398;2023-12-14T08:33:28;18.13;;;7.38;;
54025;SDS011;74404;50.662;3.398;2023-12-14T08:35:54;14.25;;;7.40;;
54025;SDS011;74404;50.662;3.398;2023-12-14T08:38:20;14.27;;;7.57;;
54025;SDS011;74404;50.662;3.398;2023-12-14T08:40:46;16.05;;;7.60;;
54025;SDS011;74404;50.662;3.398;2023-12-14T08:43:11;13.10;;;7.25;;
54025;SDS011;74404;50.662;3.398;2023-12-14T08:45:37;13.85;;;7.78;;
54025;SDS011;74404;50.662;3.398;2023-12-14T08:48:02;13.23;;;7.22;;
54025;SDS011;74404;50.662;3.398;2023-12-14T08:50:28;16.48;;;7.72;;
54025;SDS011;74404;50.662;3.398;2023-12-14T08:52:54;16.90;;;7.20;;
54025;SDS011;74404;50.662;3.398;2023-12-14T08:55:19;20.27;;;8.52;;
54025;SDS011;74404;50.662;3.398;2023-12-14T08:57:45;17.10;;;8.45;;
54025;SDS011;74404;50.662;3.398;2023-12-14T09:00:10;12.23;;;7.63;;
54025;SDS011;74404;50.662;3.398;2023-12-14T09:02:37;15.38;;;7.90;;
54025;SDS011;74404;50.662;3.398;2023-12-14T09:05:02;14.50;;;7.78;;
54025;SDS011;74404;50.662;3.398;2023-12-14T09:07:29;17.20;;;7.82;;
54025;SDS011;74404;50.662;3.398;2023-12-14T09:09:55;15.27;;;8.43;;
54025;SDS011;74404;50.662;3.398;2023-12-14T09:12:21;13.10;;;7.95;;
54025;SDS011;74404;50.662;3.398;2023-12-14T09:14:46;17.08;;;8.95;;
54025;SDS011;74404;50.662;3.398;2023-12-14T09:17:12;20.27;;;8.55;;
54025;SDS011;74404;50.662;3.398;2023-12-14T09:19:38;16.70;;;8.65;;
54025;SDS011;74404;50.662;3.398;2023-12-14T09:22:03;15.63;;;8.27;;
54025;SDS011;74404;50.662;3.398;2023-12-14T09:24:29;16.55;;;8.35;;
54025;SDS011;74404;50.662;3.398;2023-12-14T09:26:55;17.23;;;8.98;;
54025;SDS011;74404;50.662;3.398;2023-12-14T09:29:20;15.65;;;8.63;;
54025;SDS011;74404;50.662;3.398;2023-12-14T09:31:45;15.73;;;8.32;;
54025;SDS011;74404;50.662;3.398;2023-12-14T09:34:11;17.27;;;8.57;;
54025;SDS011;74404;50.662;3.398;2023-12-14T09:36:37;17.10;;;9.00;;
54025;SDS011;74404;50.662;3.398;2023-12-14T09:39:03;16.23;;;9.05;;
54025;SDS011;74404;50.662;3.398;2023-12-14T09:41:29;17.15;;;9.63;;
54025;SDS011;74404;50.662;3.398;2023-12-14T09:43:54;20.13;;;9.73;;
54025;SDS011;74404;50.662;3.398;2023-12-14T09:46:20;19.63;;;9.68;;
54025;SDS011;74404;50.662;3.398;2023-12-14T09:48:47;18.50;;;10.38;;
54025;SDS011;74404;50.662;3.398;2023-12-14T09:51:16;16.77;;;9.50;;
54025;SDS011;74404;50.662;3.398;2023-12-14T09:53:42;18.88;;;9.88;;
54025;SDS011;74404;50.662;3.398;2023-12-14T09:56:08;17.70;;;10.45;;
54025;SDS011;74404;50.662;3.398;2023-12-14T09:58:33;20.45;;;10.10;;
54025;SDS011;74404;50.662;3.398;2023-12-14T10:00:59;17.77;;;10.50;;
54025;SDS011;74404;50.662;3.398;2023-12-14T10:03:26;16.73;;;10.02;;
54025;SDS011;74404;50.662;3.398;2023-12-14T10:05:57;21.75;;;10.65;;
54025;SDS011;74404;50.662;3.398;2023-12-14T10:08:23;18.02;;;10.52;;
54025;SDS011;74404;50.662;3.398;2023-12-14T10:10:51;18.88;;;10.50;;
54025;SDS011;74404;50.662;3.398;2023-12-14T10:13:22;15.30;;;9.57;;
54025;SDS011;74404;50.662;3.398;2023-12-14T10:16:01;22.42;;;10.65;;
54025;SDS011;74404;50.662;3.398;2023-12-14T10:18:27;18.20;;;9.93;;
54025;SDS011;74404;50.662;3.398;2023-12-14T10:20:54;18.10;;;10.23;;
54025;SDS011;74404;50.662;3.398;2023-12-14T10:23:21;19.02;;;11.13;;
54025;SDS011;74404;50.662;3.398;2023-12-14T10:25:46;20.70;;;10.63;;
54025;SDS011;74404;50.662;3.398;2023-12-14T10:28:15;19.52;;;10.40;;
54025;SDS011;74404;50.662;3.398;2023-12-14T10:30:41;20.10;;;11.23;;
54025;SDS011;74404;50.662;3.398;2023-12-14T10:33:07;16.80;;;9.68;;
54025;SDS011;74404;50.662;3.398;2023-12-14T10:35:33;17.60;;;10.10;;
54025;SDS011;74404;50.662;3.398;2023-12-14T10:38:01;19.60;;;10.52;;
54025;SDS011;74404;50.662;3.398;2023-12-14T10:40:29;18.67;;;9.40;;
54025;SDS011;74404;50.662;3.398;2023-12-14T10:42:56;16.17;;;10.25;;
54025;SDS011;74404;50.662;3.398;2023-12-14T10:45:26;19.20;;;10.77;;
54025;SDS011;74404;50.662;3.398;2023-12-14T10:47:54;14.23;;;9.75;;
54025;SDS011;74404;50.662;3.398;2023-12-14T10:50:23;13.85;;;9.82;;
54025;SDS011;74404;50.662;3.398;2023-12-14T10:52:50;17.45;;;10.15;;
54025;SDS011;74404;50.662;3.398;2023-12-14T10:55:31;17.88;;;10.13;;
54025;SDS011;74404;50.662;3.398;2023-12-14T10:58:02;18.50;;;10.57;;
54025;SDS011;74404;50.662;3.398;2023-12-14T11:00:28;17.05;;;10.40;;
54025;SDS011;74404;50.662;3.398;2023-12-14T11:02:54;20.70;;;11.15;;
54025;SDS011;74404;50.662;3.398;2023-12-14T11:05:21;18.95;;;10.77;;
54025;SDS011;74404;50.662;3.398;2023-12-14T11:07:54;19.05;;;11.13;;
54025;SDS011;74404;50.662;3.398;2023-12-14T11:10:42;20.88;;;11.30;;
54025;SDS011;74404;50.662;3.398;2023-12-14T11:13:09;19.58;;;10.88;;
54025;SDS011;74404;50.662;3.398;2023-12-14T11:15:38;16.95;;;11.00;;
54025;SDS011;74404;50.662;3.398;2023-12-14T11:18:26;16.60;;;10.77;;
54025;SDS011;74404;50.662;3.398;2023-12-14T11:20:52;15.75;;;10.00;;
54025;SDS011;74404;50.662;3.398;2023-12-14T11:25:56;17.48;;;9.48;;
54025;SDS011;74404;50.662;3.398;2023-12-14T11:28:28;13.97;;;7.90;;
54025;SDS011;74404;50.662;3.398;2023-12-14T11:31:01;16.75;;;8.80;;
54025;SDS011;74404;50.662;3.398;2023-12-14T11:33:28;12.98;;;7.20;;
54025;SDS011;74404;50.662;3.398;2023-12-14T11:35:54;11.40;;;6.50;;
54025;SDS011;74404;50.662;3.398;2023-12-14T11:38:21;14.80;;;7.03;;
54025;SDS011;74404;50.662;3.398;2023-12-14T11:40:48;14.23;;;7.38;;
54025;SDS011;74404;50.662;3.398;2023-12-14T11:43:14;14.52;;;6.40;;
54025;SDS011;74404;50.662;3.398;2023-12-14T11:45:40;15.75;;;5.75;;
54025;SDS011;74404;50.662;3.398;2023-12-14T11:48:07;12.02;;;5.70;;
54025;SDS011;74404;50.662;3.398;2023-12-14T11:50:36;15.52;;;5.75;;
54025;SDS011;74404;50.662;3.398;2023-12-14T11:53:05;11.45;;;5.25;;
54025;SDS011;74404;50.662;3.398;2023-12-14T11:55:31;10.15;;;5.47;;
54025;SDS011;74404;50.662;3.398;2023-12-14T11:57:58;11.27;;;5.10;;
54025;SDS011;74404;50.662;3.398;2023-12-14T12:00:25;10.43;;;5.15;;
54025;SDS011;74404;50.662;3.398;2023-12-14T12:02:52;11.18;;;5.03;;
54025;SDS011;74404;50.662;3.398;2023-12-14T12:05:17;9.25;;;4.45;;
54025;SDS011;74404;50.662;3.398;2023-12-14T12:07:46;9.75;;;4.68;;
54025;SDS011;74404;50.662;3.398;2023-12-14T12:10:11;13.30;;;4.93;;
54025;SDS011;74404;50.662;3.398;2023-12-14T12:12:37;11.80;;;4.63;;
54025;SDS011;74404;50.662;3.398;2023-12-14T12:15:03;8.65;;;4.55;;
54025;SDS011;74404;50.662;3.398;2023-12-14T12:17:29;8.88;;;3.80;;
54025;SDS011;74404;50.662;3.398;2023-12-14T12:19:54;10.70;;;3.88;;
54025;SDS011;74404;50.662;3.398;2023-12-14T12:22:20;7.90;;;3.88;;
54025;SDS011;74404;50.662;3.398;2023-12-14T12:24:45;11.35;;;4.15;;
54025;SDS011;74404;50.662;3.398;2023-12-14T12:27:11;11.32;;;3.80;;
54025;SDS011;74404;50.662;3.398;2023-12-14T12:29:36;7.75;;;3.55;;
54025;SDS011;74404;50.662;3.398;2023-12-14T12:32:01;7.82;;;3.45;;
54025;SDS011;74404;50.662;3.398;2023-12-14T12:34:27;12.52;;;3.92;;
54025;SDS011;74404;50.662;3.398;2023-12-14T12:36:52;9.18;;;3.30;;
54025;SDS011;74404;50.662;3.398;2023-12-14T12:39:19;12.55;;;3.65;;
54025;SDS011;74404;50.662;3.398;2023-12-14T12:41:44;11.40;;;3.65;;
54025;SDS011;74404;50.662;3.398;2023-12-14T12:44:10;7.40;;;3.28;;
54025;SDS011;74404;50.662;3.398;2023-12-14T12:46:35;9.93;;;3.67;;
54025;SDS011;74404;50.662;3.398;2023-12-14T12:49:01;12.18;;;3.50;;
54025;SDS011;74404;50.662;3.398;2023-12-14T12:51:28;10.07;;;3.15;;
54025;SDS011;74404;50.662;3.398;2023-12-14T12:53:55;9.23;;;3.60;;
54025;SDS011;74404;50.662;3.398;2023-12-14T12:56:22;9.73;;;3.42;;
54025;SDS011;74404;50.662;3.398;2023-12-14T12:58:48;7.57;;;3.30;;
54025;SDS011;74404;50.662;3.398;2023-12-14T13:01:15;8.60;;;3.33;;
54025;SDS011;74404;50.662;3.398;2023-12-14T13:03:40;12.93;;;3.60;;
54025;SDS011;74404;50.662;3.398;2023-12-14T13:06:06;9.70;;;3.58;;
54025;SDS011;74404;50.662;3.398;2023-12-14T13:08:31;11.38;;;3.67;;
54025;SDS011;74404;50.662;3.398;2023-12-14T13:10:57;14.98;;;4.25;;
54025;SDS011;74404;50.662;3.398;2023-12-14T13:13:22;11.00;;;3.83;;
54025;SDS011;74404;50.662;3.398;2023-12-14T13:15:48;8.60;;;3.55;;
54025;SDS011;74404;50.662;3.398;2023-12-14T13:18:14;12.32;;;3.85;;
54025;SDS011;74404;50.662;3.398;2023-12-14T13:20:41;14.80;;;4.43;;
54025;SDS011;74404;50.662;3.398;2023-12-14T13:23:07;8.13;;;3.72;;
54025;SDS011;74404;50.662;3.398;2023-12-14T13:25:33;12.70;;;4.32;;
54025;SDS011;74404;50.662;3.398;2023-12-14T13:28:00;17.80;;;3.92;;
54025;SDS011;74404;50.662;3.398;2023-12-14T13:30:25;11.23;;;3.72;;
54025;SDS011;74404;50.662;3.398;2023-12-14T13:32:51;14.43;;;4.35;;
54025;SDS011;74404;50.662;3.398;2023-12-14T13:35:18;12.60;;;3.92;;
54025;SDS011;74404;50.662;3.398;2023-12-14T13:37:44;9.43;;;3.75;;
54025;SDS011;74404;50.662;3.398;2023-12-14T13:40:09;11.85;;;4.07;;
54025;SDS011;74404;50.662;3.398;2023-12-14T13:42:35;9.05;;;3.72;;
54025;SDS011;74404;50.662;3.398;2023-12-14T13:45:01;12.40;;;4.20;;
54025;SDS011;74404;50.662;3.398;2023-12-14T13:47:26;10.18;;;3.70;;
54025;SDS011;74404;50.662;3.398;2023-12-14T13:49:52;10.98;;;3.60;;
54025;SDS011;74404;50.662;3.398;2023-12-14T13:52:18;12.20;;;3.78;;
54025;SDS011;74404;50.662;3.398;2023-12-14T13:54:43;9.73;;;3.38;;
54025;SDS011;74404;50.662;3.398;2023-12-14T13:57:09;10.93;;;3.50;;
54025;SDS011;74404;50.662;3.398;2023-12-14T13:59:34;12.00;;;3.80;;
54025;SDS011;74404;50.662;3.398;2023-12-14T14:01:59;11.73;;;3.28;;
54025;SDS011;74404;50.662;3.398;2023-12-14T14:04:25;13.38;;;3.70;;
54025;SDS011;74404;50.662;3.398;2023-12-14T14:06:50;10.93;;;3.22;;
54025;SDS011;74404;50.662;3.398;2023-12-14T14:09:16;9.75;;;3.85;;
54025;SDS011;74404;50.662;3.398;2023-12-14T14:11:41;13.35;;;3.60;;
54025;SDS011;74404;50.662;3.398;2023-12-14T14:14:11;10.48;;;3.30;;
54025;SDS011;74404;50.662;3.398;2023-12-14T14:16:36;8.32;;;3.40;;
54025;SDS011;74404;50.662;3.398;2023-12-14T14:19:02;12.80;;;3.53;;
54025;SDS011;74404;50.662;3.398;2023-12-14T14:21:27;12.52;;;3.70;;
54025;SDS011;74404;50.662;3.398;2023-12-14T14:23:53;13.07;;;3.75;;
54025;SDS011;74404;50.662;3.398;2023-12-14T14:26:19;9.35;;;3.33;;